• Join FlightAware (Why Join?)
  • Login
  • US Flag 
03:11AM EDT


 

Airport Tracker/Info


-or-


 

Live Flight TrackerFlight Track Log ✈ SWA896 ✈ 19-Apr-2013 ✈ KBUF - KLAS

Flight Track Log - Related Links

Times and Time Zones

All times are in EDT time to prevent confusion due to time zone crossing. See the SWA896 flight status page for this flight to view local times or setup timezone preferences in your user account.

Time Position Orientation Groundspeed Altitude Reporting Facility
EDT Latitude Longitude Course Direction KTS MPH feet Rate Location/Type
08:10AM 42.9333 -78.7500 216° Southwest 147 169 1,900  Level Buffalo TRACON
08:11AM 42.9167 -78.7667 216° Southwest 159 183 3,100 2,040 Climbing Buffalo TRACON
08:12AM 42.8667 -78.8167 216° Southwest 210 242 5,000 1,980 Climbing Buffalo TRACON
08:12AM 42.8264 -78.8450 207° Southwest 244 281 6,500 2,640 Climbing Cleveland Center
08:13AM 42.7706 -78.8664 196° South 260 299 9,500 2,640 Climbing Cleveland Center
08:14AM 42.7022 -78.8936 196° South 249 287 11,800 2,400 Climbing Cleveland Center
08:15AM 42.6317 -78.9294 200° South 259 298 14,300 2,340 Climbing Cleveland Center
08:16AM 42.5614 -78.9594 197° South 270 311 16,500 2,220 Climbing Cleveland Center
08:17AM 42.5356 -79.0617 251° West 254 292 18,800 1,560 Climbing Cleveland Center
08:18AM 42.5308 -79.1858 267° West 285 328 19,700 900 Climbing Cleveland Center
08:19AM 42.5283 -79.3267 269° West 317 365 20,600 1,200 Climbing Cleveland Center
08:20AM 42.5236 -79.4703 267° West 361 415 22,200 1,440 Climbing Cleveland Center
08:21AM 42.5208 -79.6169 269° West 388 447 23,500 1,200 Climbing Cleveland Center
08:22AM 42.5178 -79.7692 268° West 400 460 24,700 1,200 Climbing Cleveland Center
08:23AM 42.5147 -79.9242 269° West 410 472 25,900 1,020 Climbing Cleveland Center
08:24AM 42.5028 -80.0650 263° West 417 480 26,800 960 Climbing Cleveland Center
08:25AM 42.5014 -80.2311 269° West 429 494 27,900 1,380 Climbing Cleveland Center
08:26AM 42.4975 -80.3861 268° West 429 494 29,600 1,620 Climbing Cleveland Center
08:27AM 42.4894 -80.5522 266° West 417 480 31,200 1,440 Climbing Cleveland Center
08:28AM 42.4853 -80.7042 268° West 405 466 32,500 1,200 Climbing Cleveland Center
08:29AM 42.4786 -80.8533 267° West 399 459 33,600 720 Climbing Cleveland Center
08:30AM 42.4742 -80.9969 268° West 399 459 34,000 180 Climbing Cleveland Center
08:31AM 42.4692 -81.1433 267° West 399 459 34,000  Level Cleveland Center
08:32AM 42.4642 -81.2925 267° West 404 465 34,000  Level Cleveland Center
08:33AM 42.4569 -81.4358 266° West 399 459 34,000  Level Cleveland Center
08:34AM 42.4497 -81.5819 266° West 399 459 34,000  Level Cleveland Center
08:35AM 42.4442 -81.7311 267° West 399 459 34,000  Level Cleveland Center
08:36AM 42.4361 -81.8800 266° West 399 459 34,000  Level Cleveland Center
08:37AM 42.4303 -82.0264 267° West 399 459 34,000  Level Cleveland Center
08:38AM 42.4225 -82.1528 265° West 399 459 34,000  Level Cleveland Center
08:39AM 42.4161 -82.2989 267° West 399 459 34,000  Level Cleveland Center
08:40AM 42.4075 -82.4447 265° West 399 459 34,000  Level Cleveland Center
08:41AM 42.4011 -82.5908 267° West 394 453 34,000  Level Cleveland Center
08:42AM 42.3942 -82.7367 266° West 394 453 34,000  Level Cleveland Center
08:43AM 42.3850 -82.8828 265° West 394 453 34,000  Level Cleveland Center
08:44AM 42.3758 -83.0314 265° West 394 453 34,000  Level Cleveland Center
08:45AM 42.3683 -83.1772 266° West 394 453 34,000  Level Cleveland Center
08:46AM 42.3586 -83.3314 265° West 409 471 34,000  Level Cleveland Center
08:47AM 42.3506 -83.4883 266° West 403 464 34,000  Level Cleveland Center
08:48AM 42.3444 -83.6425 267° West 403 464 34,000  Level Cleveland Center
08:49AM 42.3322 -83.7825 263° West 403 464 34,000  Level Cleveland Center
08:52AM 42.3128 -84.1097 266° West 387 445 34,000  Level Chicago Center
08:53AM 42.3039 -84.2519 265° West 382 440 34,000  Level Chicago Center
08:54AM 42.2914 -84.4233 264° West 384 442 34,000  Level Chicago Center
08:55AM 42.2819 -84.5661 265° West 383 441 34,000  Level Chicago Center
08:56AM 42.2725 -84.7083 265° West 383 441 34,000  Level Chicago Center
08:57AM 42.2617 -84.8528 264° West 387 445 34,000  Level Chicago Center
08:58AM 42.2508 -85.0008 264° West 388 447 34,000  Level Chicago Center
08:59AM 42.2417 -85.1403 265° West 384 442 34,000  Level Chicago Center
09:00AM 42.2308 -85.2819 264° West 381 438 34,000  Level Chicago Center
09:01AM 42.2169 -85.4536 264° West 383 441 34,000  Level Chicago Center
09:02AM 42.2053 -85.5978 264° West 385 443 34,000  Level Chicago Center
09:03AM 42.1933 -85.7444 264° West 391 450 34,000  Level Chicago Center
09:04AM 42.1811 -85.8886 264° West 388 447 34,000  Level Chicago Center
09:05AM 42.1686 -86.0486 264° West 396 456 34,000  Level Chicago Center
09:06AM 42.1569 -86.1936 264° West 393 452 34,000  Level Chicago Center
09:07AM 42.1439 -86.3392 263° West 393 452 34,000  Level Chicago Center
09:08AM 42.1311 -86.4842 263° West 392 451 34,000  Level Chicago Center
09:09AM 42.1183 -86.6303 263° West 395 455 34,000  Level Chicago Center
09:10AM 42.1058 -86.7750 263° West 391 450 34,000  Level Chicago Center
09:11AM 42.0897 -86.9514 263° West 397 457 34,000  Level Chicago Center
09:12AM 42.0772 -87.0981 263° West 397 457 34,000  Level Chicago Center
09:13AM 42.0625 -87.2431 262° West 395 455 34,000  Level Chicago Center
09:14AM 42.0503 -87.3900 264° West 398 458 34,000  Level Chicago Center
09:15AM 42.0350 -87.5347 262° West 396 456 34,000  Level Chicago Center
09:16AM 42.0192 -87.7097 263° West 397 457 34,000  Level Chicago Center
09:17AM 42.0047 -87.8586 263° West 402 463 34,000  Level Chicago Center
09:18AM 41.9894 -88.0061 262° West 402 463 34,000  Level Chicago Center
09:19AM 41.9747 -88.1544 262° West 405 466 34,000  Level Chicago Center
09:20AM 41.9600 -88.3000 262° West 400 460 34,000  Level Chicago Center
09:22AM 41.9414 -88.4750 262° West 400 460 34,000 60 Level Chicago Center
09:23AM 41.9258 -88.6228 262° West 402 463 34,200 420 Climbing Chicago Center
09:24AM 41.9097 -88.7739 262° West 411 473 34,900 660 Climbing Chicago Center
09:25AM 41.8936 -88.9228 262° West 409 471 35,600 480 Climbing Chicago Center
09:26AM 41.8772 -89.0731 262° West 411 473 36,000 180 Climbing Chicago Center
09:27AM 41.8606 -89.2247 262° West 413 475 36,000  Level Chicago Center
09:28AM 41.8403 -89.4058 262° West 414 476 36,000  Level Chicago Center
09:29AM 41.8228 -89.5581 261° West 413 475 36,000  Level Chicago Center
09:30AM 41.8058 -89.7081 261° West 411 473 36,000  Level Chicago Center
09:31AM 41.7906 -89.8525 262° West 418 481 36,000  Level Chicago Center
09:32AM 41.7689 -90.0364 261° West 416 479 36,000  Level Chicago Center
09:33AM 41.7506 -90.1869 261° West 413 475 36,000  Level Chicago Center
09:34AM 41.7319 -90.3411 261° West 423 487 36,000  Level Chicago Center
09:35AM 41.7131 -90.4906 260° West 412 474 36,000  Level Chicago Center
09:36AM 41.6928 -90.6478 260° West 404 465 36,000  Level Chicago Center
09:37AM 41.6756 -90.7939 261° West 401 461 36,000  Level Chicago Center
09:38AM 41.6569 -90.9408 260° West 402 463 36,000  Level Chicago Center
09:39AM 41.6383 -91.0894 261° West 406 467 36,000  Level Chicago Center
09:40AM 41.6156 -91.2678 260° West 406 467 36,000  Level Chicago Center
09:41AM 41.5956 -91.4189 260° West 412 474 36,000  Level Chicago Center
09:42AM 41.5764 -91.5686 260° West 413 475 36,000  Level Chicago Center
09:43AM 41.5561 -91.7178 260° West 409 471 36,000  Level Chicago Center
09:44AM 41.5356 -91.8683 260° West 412 474 36,000  Level Chicago Center
09:45AM 41.5153 -92.0169 260° West 409 471 36,000  Level Chicago Center
09:46AM 41.4903 -92.1961 260° West 410 472 36,000  Level Chicago Center
09:47AM 41.4697 -92.3467 260° West 412 474 36,000  Level Chicago Center
09:48AM 41.4483 -92.4989 259° West 413 475 36,000  Level Chicago Center
09:49AM 41.4261 -92.6497 259° West 417 480 36,000  Level Chicago Center
09:50AM 41.4094 -92.7711 260° West 414 476 36,000  Level Minneapolis Center
09:51AM 41.3869 -92.9214 259° West 416 479 36,000  Level Minneapolis Center
09:52AM 41.3650 -93.0722 259° West 418 481 36,000  Level Minneapolis Center
09:53AM 41.3386 -93.2522 259° West 418 481 36,000  Level Minneapolis Center
09:54AM 41.3164 -93.4014 259° West 417 480 36,000  Level Minneapolis Center
09:55AM 41.2936 -93.5489 258° West 414 476 36,000  Level Minneapolis Center
09:56AM 41.2708 -93.6983 259° West 415 478 36,000  Level Minneapolis Center
09:57AM 41.2478 -93.8478 258° West 415 478 36,000  Level Minneapolis Center
09:58AM 41.2267 -93.9908 259° West 409 471 36,000  Level Minneapolis Center
09:59AM 41.1997 -94.1711 259° West 416 479 36,000  Level Minneapolis Center
10:00AM 41.1753 -94.3289 258° West 421 484 36,000  Level Minneapolis Center
10:01AM 41.1500 -94.4806 258° West 422 486 36,000  Level Minneapolis Center
10:02AM 41.1258 -94.6339 258° West 424 488 36,000  Level Minneapolis Center
10:04AM 41.1011 -94.7856 258° West 422 486 36,000  Level Minneapolis Center
10:05AM 41.0767 -94.9389 258° West 424 488 36,000  Level Minneapolis Center
10:06AM 41.0508 -95.0908 257° West 423 487 36,000  Level Minneapolis Center
10:07AM 41.0261 -95.2403 258° West 417 480 36,000  Level Minneapolis Center
10:08AM 41.0003 -95.3906 257° West 417 480 36,000  Level Minneapolis Center
10:09AM 40.9756 -95.5428 258° West 419 482 36,000  Level Minneapolis Center
10:10AM 40.9442 -95.7214 257° West 415 478 36,000  Level Minneapolis Center
10:11AM 40.9186 -95.8700 257° West 413 475 36,000  Level Minneapolis Center
10:12AM 40.8933 -96.0186 257° West 412 474 36,000  Level Minneapolis Center
10:13AM 40.8669 -96.1678 257° West 413 475 36,000  Level Minneapolis Center
10:14AM 40.8406 -96.3189 257° West 417 480 36,000  Level Minneapolis Center
10:15AM 40.8139 -96.4706 257° West 420 483 36,000  Level Minneapolis Center
10:16AM 40.7858 -96.6225 256° West 424 488 36,000  Level Minneapolis Center
10:17AM 40.7589 -96.7767 257° West 428 493 36,000  Level Minneapolis Center
10:18AM 40.7306 -96.9303 256° West 430 495 36,000  Level Minneapolis Center
10:19AM 40.6967 -97.1153 256° West 432 497 36,000  Level Minneapolis Center
10:20AM 40.6683 -97.2681 256° West 429 494 36,000  Level Minneapolis Center
10:21AM 40.6428 -97.4019 256° West 429 494 36,000  Level Minneapolis Center
10:22AM 40.6089 -97.5872 257° West 431 496 36,000  Level Minneapolis Center
10:23AM 40.5797 -97.7411 256° West 432 497 36,000  Level Minneapolis Center
10:24AM 40.5439 -97.9256 256° West 432 497 36,000  Level Minneapolis Center
10:25AM 40.5136 -98.0800 256° West 434 499 36,000  Level Minneapolis Center
10:26AM 40.4831 -98.2333 255° West 433 498 36,000  Level Minneapolis Center
10:27AM 40.4533 -98.3872 256° West 432 497 36,000  Level Minneapolis Center
10:29AM 40.4222 -98.5414 255° West 433 498 36,000  Level Minneapolis Center
10:30AM 40.3867 -98.7242 256° West 431 496 36,000  Level Minneapolis Center
10:31AM 40.3569 -98.8733 255° West 424 488 36,000  Level Minneapolis Center
10:32AM 40.3267 -99.0203 255° West 416 479 36,000  Level Denver Center
10:33AM 40.2956 -99.1667 254° West 415 478 36,000  Level Denver Center
10:34AM 40.2661 -99.3144 255° West 418 481 36,000  Level Denver Center
10:35AM 40.2358 -99.4611 255° West 417 480 36,000  Level Denver Center
10:36AM 40.2047 -99.6078 255° West 417 480 36,000  Level Denver Center
10:37AM 40.1678 -99.7850 255° West 420 483 36,000  Level Denver Center
10:38AM 40.1367 -99.9297 254° West 423 487 36,000  Level Denver Center
10:39AM 40.1072 -100.0711 255° West 422 486 36,000  Level Denver Center
10:40AM 40.0706 -100.2389 254° West 427 491 36,000  Level Denver Center
10:41AM 40.0389 -100.3850 254° West 433 498 36,000  Level Denver Center
10:42AM 40.0025 -100.5528 254° West 430 495 36,000  Level Denver Center
10:43AM 39.9717 -100.6953 254° West 427 491 36,000  Level Denver Center
10:44AM 39.9397 -100.8367 254° West 426 490 36,000  Level Denver Center
10:45AM 39.9036 -101.0025 254° West 424 488 36,000  Level Denver Center
10:46AM 39.8725 -101.1403 254° West 419 482 36,000  Level Denver Center
10:47AM 39.8367 -101.3000 254° West 413 475 36,000  Level Denver Center
10:48AM 39.8044 -101.4411 253° West 420 483 36,000  Level Denver Center
10:49AM 39.7678 -101.6022 254° West 418 481 36,000  Level Denver Center
10:50AM 39.7361 -101.7414 254° West 418 481 36,000  Level Denver Center
10:51AM 39.6975 -101.9036 253° West 422 486 36,000  Level Denver Center
10:52AM 39.6656 -102.0425 253° West 422 486 36,000  Level Denver Center
10:53AM 39.6278 -102.2036 253° West 419 482 36,000  Level Denver Center
10:54AM 39.5961 -102.3450 254° West 424 488 36,000  Level Denver Center
10:55AM 39.5583 -102.4956 252° West 423 487 36,000  Level Denver Center
10:56AM 39.5242 -102.6442 253° West 427 491 36,000  Level Denver Center
10:57AM 39.4881 -102.7931 253° West 429 494 36,000  Level Denver Center
10:58AM 39.4525 -102.9394 253° West 426 490 36,000  Level Denver Center
10:59AM 39.4153 -103.0864 252° West 426 490 36,000  Level Denver Center
11:00AM 39.3742 -103.2569 253° West 423 487 36,000  Level Denver Center
11:02AM 39.3386 -103.4028 253° West 422 486 36,000  Level Denver Center
11:03AM 39.3017 -103.5492 252° West 424 488 36,000  Level Denver Center
11:04AM 39.2650 -103.6939 252° West 420 483 36,000  Level Denver Center
11:05AM 39.2292 -103.8403 253° West 423 487 36,000  Level Denver Center
11:06AM 39.1919 -103.9861 252° West 423 487 36,000  Level Denver Center
11:07AM 39.1556 -104.1325 252° West 423 487 36,000  Level Denver Center
11:08AM 39.1175 -104.2778 251° West 422 486 36,000  Level Denver Center
11:09AM 39.0806 -104.4228 252° West 420 483 36,000  Level Denver Center
11:10AM 39.0358 -104.5939 251° West 426 490 36,000  Level Denver Center
11:11AM 38.9978 -104.7389 251° West 423 487 36,000  Level Denver Center
11:12AM 38.9606 -104.8850 252° West 423 487 36,000  Level Denver Center
11:13AM 38.9222 -105.0297 251° West 423 487 36,000  Level Denver Center
11:14AM 38.8833 -105.1728 251° West 421 484 36,000  Level Denver Center
11:15AM 38.8478 -105.3125 252° West 410 472 36,000  Level Denver Center
11:16AM 38.8100 -105.4500 251° West 405 466 36,000  Level Denver Center
11:17AM 38.7719 -105.5892 251° West 408 470 36,000  Level Denver Center
11:18AM 38.7281 -105.7519 251° West 413 475 36,000  Level Denver Center
11:19AM 38.6894 -105.8944 251° West 420 483 36,000  Level Denver Center
11:20AM 38.6494 -106.0378 250° West 425 489 36,000  Level Denver Center
11:21AM 38.6136 -106.1719 251° West 424 488 36,000  Level Denver Center
11:22AM 38.5728 -106.3153 250° West 426 490 36,000  Level Denver Center
11:23AM 38.5322 -106.4625 251° West 435 501 36,000  Level Denver Center
11:24AM 38.4911 -106.6081 250° West 434 499 36,000 360 Level Denver Center
11:25AM 38.4419 -106.7806 250° West 429 494 36,800 600 Climbing Denver Center
11:26AM 38.4011 -106.9253 250° West 431 496 37,300 540 Climbing Denver Center
11:27AM 38.3597 -107.0722 250° West 438 504 38,000 300 Climbing Denver Center
11:28AM 38.3131 -107.2300 249° West 431 496 38,000  Level Denver Center
11:29AM 38.2750 -107.3661 250° West 427 491 38,000  Level Denver Center
11:30AM 38.2286 -107.5231 249° West 424 488 38,000  Level Denver Center
11:31AM 38.1900 -107.6558 250° West 421 484 38,000  Level Denver Center
11:33AM 38.1506 -107.7903 250° West 423 487 38,000  Level Denver Center
11:34AM 38.1047 -107.9475 250° West 424 488 38,000  Level Denver Center
11:35AM 38.0644 -108.0847 250° West 420 483 38,000  Level Denver Center
11:36AM 38.0183 -108.2389 249° West 421 484 38,000  Level Denver Center
11:37AM 37.9778 -108.3742 249° West 426 490 38,000  Level Denver Center
11:38AM 37.9308 -108.5272 249° West 422 486 38,000  Level Denver Center
11:39AM 37.8914 -108.6619 250° West 426 490 38,000  Level Denver Center
11:40AM 37.8511 -108.8197 252° West 424 488 38,000  Level Denver Center
11:41AM 37.8222 -108.9536 255° West 416 479 38,000  Level Denver Center
11:42AM 37.7883 -109.1103 255° West 414 476 38,000  Level Denver Center
11:43AM 37.7575 -109.2439 254° West 413 475 38,000  Level Denver Center
11:44AM 37.7239 -109.4003 255° West 414 476 38,000  Level Denver Center
11:45AM 37.6939 -109.5331 254° West 413 475 38,000  Level Denver Center
11:46AM 37.6650 -109.6653 255° West 410 472 38,000  Level Denver Center
11:47AM 37.6297 -109.8211 254° West 413 475 38,000  Level Denver Center
11:48AM 37.6006 -109.9544 255° West 413 475 38,000 -300 Level Denver Center
11:49AM 37.5650 -110.1078 254° West 410 472 37,400 -780 Descending Denver Center
11:50AM 37.5339 -110.2419 254° West 415 478 36,500 -720 Descending Denver Center
11:51AM 37.4964 -110.4017 254° West 426 490 36,000 -780 Descending Denver Center
11:52AM 37.4642 -110.5433 254° West 424 488 35,000 -960 Descending Denver Center
11:53AM 37.4311 -110.6844 254° West 421 484 34,100 -540 Descending Denver Center
11:54AM 37.3978 -110.8267 254° West 423 487 34,000 -60 Descending Denver Center
11:55AM 37.3644 -110.9681 254° West 422 486 34,000 -540 Level Denver Center
11:56AM 37.3244 -111.1383 254° West 423 487 32,900 -1,020 Descending Denver Center
11:57AM 37.2894 -111.2792 253° West 424 488 32,000 -480 Descending Denver Center
11:58AM 37.2564 -111.4194 254° West 421 484 32,000  Level Denver Center
11:59AM 37.2217 -111.5592 253° West 419 482 32,000  Level Denver Center
12:00PM 37.1892 -111.6972 254° West 415 478 32,000  Level Denver Center
12:01PM 37.1578 -111.8339 254° West 409 471 32,000  Level Denver Center
12:02PM 37.1283 -111.9458 252° West 414 476 32,000  Level Los Angeles Center
12:03PM 37.1167 -112.0003 255° West 414 476 32,000 -540 Level Denver Center
12:04PM 37.0814 -112.1381 252° West 416 479 31,300 -840 Descending Denver Center
12:04PM 37.0586 -112.2186 251° West 406 467 30,600 -960 Descending Los Angeles Center
12:05PM 37.0258 -112.3514 253° West 398 458 29,700 -900 Descending Los Angeles Center
12:06PM 36.9903 -112.4889 252° West 413 475 28,800 -840 Descending Los Angeles Center
12:07PM 36.9542 -112.6292 252° West 421 484 28,000 -420 Descending Los Angeles Center
12:08PM 36.9119 -112.7981 253° West 423 487 28,000  Level Los Angeles Center
12:09PM 36.8764 -112.9369 252° West 420 483 28,000  Level Los Angeles Center
12:10PM 36.8403 -113.0761 252° West 420 483 28,000  Level Los Angeles Center
12:11PM 36.8039 -113.2144 252° West 420 483 28,000  Level Los Angeles Center
12:12PM 36.7681 -113.3550 252° West 423 487 28,000  Level Los Angeles Center
12:14PM 36.7314 -113.4944 252° West 423 487 28,000 -1,800 Level Los Angeles Center
12:16PM 36.6592 -113.7541 251° West  Level FlightAware Approximate
12:17PM 36.6175 -113.9253 251° West 398 458 20,700  Level Los Angeles Center
12:18PM 36.5839 -114.0500 251° West 386 444 18,600 -2,040 Descending Los Angeles Center
12:19PM 36.5406 -114.1650 245° Southwest 373 429 16,500 -2,280 Descending Los Angeles Center
12:20PM 36.4678 -114.3264 241° Southwest 364 419 13,300 -1,980 Descending Los Angeles Center
12:21PM 36.4344 -114.3858 235° Southwest 358 412 12,500 -900 Descending Los Angeles Center
12:22PM 36.3819 -114.4842 236° Southwest 346 398 11,700 -900 Descending Los Angeles Center
12:22PM 36.3617 -114.5206 235° Southwest 332 382 11,400 -1,200 Descending Los Angeles Center
12:23PM 36.3272 -114.5889 238° Southwest 301 346 10,500 -1,260 Descending Los Angeles Center
12:24PM 36.2839 -114.6719 237° Southwest 290 334 9,100 -1,440 Descending Los Angeles Center
12:25PM 36.2406 -114.7528 236° Southwest 284 327 7,600 -1,380 Descending Los Angeles Center
12:26PM 36.1975 -114.8336 237° Southwest 281 323 6,300 -1,200 Descending Los Angeles Center
12:27PM 36.1569 -114.9108 237° Southwest 274 315 5,200 -720 Descending Los Angeles Center
12:28PM 36.1339 -114.9817 248° West 258 297 4,900 -720 Descending Los Angeles Center
12:29PM 36.1394 -115.0728 274° West 177 204 3,700 -780 Descending Los Angeles Center
12:30PM 36.1358 -115.1150 264° West 181 208 3,300 -720 Descending Los Angeles Center
12:31PM 36.1064 -115.1514 225° Southwest 165 190 2,400 -900 Descending Los Angeles Center
12:33PM 36.0801 -115.1523 219° Southwest  Level Estimated
12:40PM 36.0801 -115.1523 219° Southwest  Level Estimated